Time;durP1;ratioP1;P1;durP2;ratioP2;P2;SDS_P1;SDS_P2;PMS_P1;PMS_P2;Temp;Humidity;BMP_temperature;BMP_pressure;BME280_temperature;BME280_humidity;BME280_pressure;Samples;Min_cycle;Max_cycle;Signal;HPM_P1;HPM_P2
2023/11/03 00:01:26;;;;;;;1.40;0.60;;;;;;;8.15;100.00;97730.84;5110605;28;20028;-34
2023/11/03 00:03:51;;;;;;;1.17;0.63;;;;;;;8.18;100.00;97749.09;5092003;28;20439;-35
2023/11/03 00:06:16;;;;;;;1.97;0.80;;;;;;;8.16;100.00;97742.41;5110213;28;20383;-35
2023/11/03 00:08:42;;;;;;;2.23;0.70;;;;;;;8.24;100.00;97755.22;5101147;28;20371;-34
2023/11/03 00:11:07;;;;;;;2.87;0.60;;;;;;;8.21;100.00;97753.91;5097065;28;20324;-34
2023/11/03 00:13:36;;;;;;;2.58;0.70;;;;;;;8.22;100.00;97766.28;5096133;28;20420;-35
2023/11/03 00:16:03;;;;;;;3.17;0.50;;;;;;;7.93;100.00;97720.66;5096555;28;20430;-35
2023/11/03 00:18:29;;;;;;;1.75;0.57;;;;;;;8.21;100.00;97761.19;5096320;28;20077;-35
2023/11/03 00:20:54;;;;;;;1.90;0.70;;;;;;;8.13;100.00;97753.75;5096319;28;20032;-34
2023/11/03 00:23:19;;;;;;;2.13;0.60;;;;;;;8.21;100.00;97758.50;5096056;28;20112;-35
2023/11/03 00:25:47;;;;;;;2.10;0.70;;;;;;;8.21;100.00;97764.69;5096263;28;20114;-35
2023/11/03 00:28:13;;;;;;;1.27;0.55;;;;;;;8.20;100.00;97767.66;5095823;28;20024;-35
2023/11/03 00:30:39;;;;;;;1.08;0.50;;;;;;;8.20;100.00;97771.16;5097024;28;20073;-35
2023/11/03 00:33:05;;;;;;;1.33;0.50;;;;;;;8.14;100.00;97768.81;5096008;28;20533;-35
2023/11/03 00:35:31;;;;;;;1.52;0.50;;;;;;;8.24;100.00;97787.50;5096258;28;20024;-34
2023/11/03 00:37:57;;;;;;;3.60;0.63;;;;;;;8.27;100.00;97795.81;5095918;28;20114;-35
2023/11/03 00:40:22;;;;;;;2.13;0.63;;;;;;;8.21;100.00;97790.81;5096814;28;20068;-34
2023/11/03 00:42:48;;;;;;;1.40;0.50;;;;;;;8.31;100.00;97803.31;5095859;28;20050;-35
2023/11/03 00:45:14;;;;;;;2.50;1.00;;;;;;;8.30;100.00;97818.69;5095953;28;20024;-35
2023/11/03 00:47:40;;;;;;;2.13;0.82;;;;;;;8.12;100.00;97784.47;5095454;28;20039;-34
2023/11/03 00:50:06;;;;;;;;;;;;;;;8.32;100.00;97807.59;5096471;28;20032;-34
2023/11/03 00:52:31;;;;;;;1.67;0.50;;;;;;;8.24;100.00;97809.03;5095636;28;20414;-34
2023/11/03 00:54:56;;;;;;;1.33;0.40;;;;;;;8.20;100.00;97799.97;5096545;28;20028;-35
2023/11/03 00:57:23;;;;;;;0.83;0.40;;;;;;;8.22;100.00;97814.72;5095562;28;20312;-34
2023/11/03 00:59:49;;;;;;;;;;;;;;;8.27;100.00;97824.63;5096293;28;20459;-34
2023/11/03 01:02:14;;;;;;;1.10;0.50;;;;;;;8.26;100.00;97826.53;5095514;28;19912;-35
2023/11/03 01:04:40;;;;;;;2.53;0.40;;;;;;;8.26;100.00;97823.84;5096115;28;20107;-34
2023/11/03 01:07:06;;;;;;;1.13;0.35;;;;;;;8.26;100.00;97826.53;5095248;28;20357;-34
2023/11/03 01:09:31;;;;;;;1.25;0.50;;;;;;;8.28;100.00;97823.53;5095719;28;20054;-35
2023/11/03 01:11:57;;;;;;;1.15;0.40;;;;;;;8.25;100.00;97822.25;5096010;28;20028;-34
2023/11/03 01:14:23;;;;;;;2.53;0.50;;;;;;;8.26;100.00;97825.72;5095546;28;20028;-35
2023/11/03 01:16:49;;;;;;;1.73;0.40;;;;;;;8.20;100.00;97826.88;5095450;28;20282;-35
2023/11/03 01:19:18;;;;;;;2.13;0.47;;;;;;;8.26;100.00;97834.59;5076817;28;20453;-35
2023/11/03 01:21:43;;;;;;;1.08;0.40;;;;;;;8.21;100.00;97825.78;5094686;28;20456;-35
2023/11/03 01:24:10;;;;;;;1.15;0.60;;;;;;;8.27;100.00;97838.88;5095108;28;20025;-35
2023/11/03 01:26:36;;;;;;;2.47;0.43;;;;;;;8.30;100.00;97848.28;5095595;28;20036;-35
2023/11/03 01:29:04;;;;;;;1.60;0.60;;;;;;;8.31;100.00;97838.31;5094710;28;20124;-34
2023/11/03 01:31:30;;;;;;;2.10;0.50;;;;;;;8.34;100.00;97832.34;5094640;28;20522;-35
2023/11/03 01:33:55;;;;;;;;;;;;;;;8.37;100.00;97837.19;5095528;28;20028;-35
2023/11/03 01:36:21;;;;;;;3.20;0.60;;;;;;;8.31;100.00;97838.31;5095032;28;19915;-34
2023/11/03 01:38:48;;;;;;;2.30;0.50;;;;;;;8.34;100.00;97832.34;5095031;28;20028;-35
2023/11/03 01:41:15;;;;;;;2.13;0.63;;;;;;;8.32;100.00;97824.56;5095575;28;20368;-34
2023/11/03 01:44:11;;;;;;;1.50;0.60;;;;;;;8.39;100.00;97846.56;5094374;28;20028;-35
2023/11/03 01:46:38;;;;;;;1.50;0.70;;;;;;;8.38;100.00;97844.16;5094674;28;20028;-35
2023/11/03 01:49:05;;;;;;;1.98;0.47;;;;;;;8.41;100.00;97843.59;5094881;28;20028;-35
2023/11/03 01:51:31;;;;;;;3.97;0.75;;;;;;;8.40;100.00;97848.19;5094814;28;20117;-35
2023/11/03 01:53:58;;;;;;;1.33;0.50;;;;;;;8.45;100.00;97852.72;5094125;28;20032;-35
2023/11/03 01:56:23;;;;;;;1.38;0.50;;;;;;;8.44;100.00;97857.28;5095183;28;20337;-35
2023/11/03 01:58:49;;;;;;;1.95;0.73;;;;;;;8.46;100.00;97847.03;5094491;28;20032;-34
2023/11/03 02:01:15;;;;;;;2.25;0.43;;;;;;;8.32;100.00;97829.94;5095247;28;20028;-35
2023/11/03 02:03:41;;;;;;;2.25;0.75;;;;;;;8.48;100.00;97852.09;5094621;28;20031;-34
2023/11/03 02:06:07;;;;;;;1.98;0.50;;;;;;;8.49;100.00;97851.84;5094587;28;20036;-35
2023/11/03 02:08:32;;;;;;;1.75;0.57;;;;;;;8.47;100.00;97859.38;5094310;28;20024;-35
2023/11/03 02:10:57;;;;;;;1.63;0.57;;;;;;;8.50;100.00;97860.72;5094255;28;20032;-35
2023/11/03 02:13:23;;;;;;;2.13;0.60;;;;;;;8.41;100.00;97865.94;5094407;28;20117;-35
2023/11/03 02:15:49;;;;;;;2.37;0.90;;;;;;;8.55;100.00;97886.78;5094059;28;20032;-35
2023/11/03 02:18:17;;;;;;;2.53;0.80;;;;;;;8.54;100.00;97877.91;5094641;28;20538;-35
2023/11/03 02:20:43;;;;;;;3.67;0.52;;;;;;;8.55;100.00;97892.16;5094042;28;20478;-35
2023/11/03 02:23:08;;;;;;;2.00;0.65;;;;;;;8.55;100.00;97878.69;5094040;28;20034;-35
2023/11/03 02:25:34;;;;;;;6.50;0.80;;;;;;;8.56;100.00;97877.59;5094610;28;20475;-34
2023/11/03 02:27:59;;;;;;;1.80;0.70;;;;;;;8.56;100.00;97894.56;5093954;28;20297;-35
2023/11/03 02:30:25;;;;;;;2.83;0.80;;;;;;;8.52;100.00;97893.53;5094740;28;20065;-35
2023/11/03 02:32:50;;;;;;;;;;;;;;;8.60;100.00;97894.78;5094084;28;20058;-35
2023/11/03 02:35:16;;;;;;;3.08;1.15;;;;;;;8.56;100.00;97902.66;5094214;28;20344;-35
2023/11/03 02:37:41;;;;;;;4.53;0.70;;;;;;;8.47;100.00;97893.59;5093728;28;20020;-34
2023/11/03 02:40:07;;;;;;;2.90;0.83;;;;;;;8.50;100.00;97887.66;5093799;28;20023;-34
2023/11/03 02:42:33;;;;;;;3.03;0.80;;;;;;;8.54;100.00;97895.94;5093787;28;20032;-34
2023/11/03 02:44:58;;;;;;;6.65;1.50;;;;;;;8.55;100.00;97894.88;5094328;28;20345;-35
2023/11/03 02:47:24;;;;;;;4.50;0.70;;;;;;;8.47;100.00;97894.41;5093712;28;20060;-35
2023/11/03 02:49:49;;;;;;;2.07;0.60;;;;;;;8.55;100.00;97902.94;5093744;28;20807;-35
2023/11/03 02:52:14;;;;;;;5.47;1.03;;;;;;;8.52;100.00;97899.72;5093745;28;20024;-35
2023/11/03 02:54:40;;;;;;;3.20;0.80;;;;;;;8.52;100.00;97905.09;5093345;28;20024;-35
2023/11/03 02:57:05;;;;;;;4.23;0.93;;;;;;;8.52;100.00;97905.09;5092102;28;20048;-34
2023/11/03 02:59:31;;;;;;;3.63;0.87;;;;;;;8.55;100.00;97919.09;5093430;28;20111;-34
2023/11/03 03:01:56;;;;;;;3.20;0.85;;;;;;;8.48;100.00;97898.69;5093889;28;20624;-35
2023/11/03 03:04:21;;;;;;;6.00;1.10;;;;;;;8.58;100.00;97918.50;5093522;28;20032;-34
2023/11/03 03:06:47;;;;;;;2.83;1.00;;;;;;;8.57;100.00;97922.28;5094091;28;20176;-34
2023/11/03 03:09:12;;;;;;;4.07;0.93;;;;;;;8.58;100.00;97921.19;5093511;28;20028;-34
2023/11/03 03:11:38;;;;;;;3.78;1.15;;;;;;;8.56;100.00;97929.56;5093323;28;20020;-35
2023/11/03 03:14:04;;;;;;;3.63;0.90;;;;;;;8.49;100.00;97924.56;5093461;28;20475;-34
2023/11/03 03:16:29;;;;;;;3.83;0.90;;;;;;;8.57;100.00;97933.88;5093074;28;20116;-35
2023/11/03 03:18:55;;;;;;;3.87;1.00;;;;;;;8.51;100.00;97911.59;5094265;28;20028;-34
2023/11/03 03:21:21;;;;;;;4.85;1.10;;;;;;;8.60;100.00;97927.13;5093466;28;20028;-34
2023/11/03 03:23:47;;;;;;;3.72;0.88;;;;;;;8.60;100.00;97936.00;5093035;28;20055;-34
2023/11/03 03:26:12;;;;;;;2.93;1.00;;;;;;;8.62;100.00;97946.47;5093349;28;20066;-34
2023/11/03 03:28:37;;;;;;;4.57;0.93;;;;;;;8.60;100.00;97940.59;5093278;28;20039;-35
2023/11/03 03:31:03;;;;;;;3.03;1.13;;;;;;;8.52;100.00;97939.31;5093307;28;20070;-34
2023/11/03 03:33:28;;;;;;;5.28;1.30;;;;;;;8.51;100.00;97946.59;5092968;28;20285;-35
2023/11/03 03:35:54;;;;;;;4.50;1.30;;;;;;;8.53;100.00;97954.38;5093511;28;20119;-34
2023/11/03 03:38:19;;;;;;;4.07;0.95;;;;;;;8.50;100.00;97953.09;5092938;28;20027;-35
2023/11/03 03:40:45;;;;;;;3.60;0.93;;;;;;;8.46;100.00;97957.44;5093463;28;20107;-34
2023/11/03 03:43:10;;;;;;;3.63;0.90;;;;;;;8.46;100.00;97965.50;5076135;28;20028;-35
2023/11/03 03:45:35;;;;;;;3.47;0.88;;;;;;;8.44;100.00;97969.56;5096965;28;20034;-34
2023/11/03 03:48:01;;;;;;;3.47;0.90;;;;;;;8.39;100.00;97975.00;5096696;28;20099;-35
2023/11/03 03:50:26;;;;;;;2.80;0.93;;;;;;;8.34;100.00;97978.53;5097774;28;20024;-34
2023/11/03 03:52:52;;;;;;;5.60;1.43;;;;;;;8.29;100.00;97980.47;5097382;28;20052;-35
2023/11/03 03:55:17;;;;;;;4.50;1.57;;;;;;;8.22;100.00;97980.81;5096910;28;20474;-34
2023/11/03 03:57:42;;;;;;;4.53;1.07;;;;;;;8.20;100.00;98007.25;5097179;28;20489;-34
2023/11/03 04:00:08;;;;;;;4.20;1.30;;;;;;;8.11;100.00;97993.59;5096500;28;20357;-34
2023/11/03 04:02:33;;;;;;;6.45;1.70;;;;;;;8.10;100.00;97997.38;5096624;28;20024;-35
2023/11/03 04:04:59;;;;;;;3.73;1.00;;;;;;;8.09;100.00;97997.63;5096717;28;20019;-34
2023/11/03 04:07:24;;;;;;;4.13;1.23;;;;;;;7.97;100.00;98000.72;5096607;28;20024;-34
2023/11/03 04:09:50;;;;;;;4.27;1.30;;;;;;;7.85;100.00;97981.44;5097425;28;20460;-35
2023/11/03 04:12:16;;;;;;;3.28;1.08;;;;;;;7.99;100.00;98007.41;5096463;28;20476;-34
2023/11/03 04:14:41;;;;;;;4.17;1.20;;;;;;;7.99;100.00;98003.91;5096481;28;20052;-34
2023/11/03 04:17:07;;;;;;;4.70;1.20;;;;;;;7.91;100.00;97999.16;5096422;28;20115;-34
2023/11/03 04:19:32;;;;;;;3.20;1.10;;;;;;;7.89;100.00;97999.44;5096659;28;20024;-34
2023/11/03 04:21:58;;;;;;;2.88;0.80;;;;;;;7.85;100.00;97984.13;5096438;28;20479;-35
2023/11/03 04:24:23;;;;;;;3.77;1.70;;;;;;;7.88;100.00;97995.13;5096046;28;20020;-35
2023/11/03 04:26:49;;;;;;;5.03;1.90;;;;;;;7.91;100.00;97994.59;5096610;28;20367;-34
2023/11/03 04:29:14;;;;;;;5.97;1.43;;;;;;;7.91;100.00;98008.03;5096419;28;20027;-35
2023/11/03 04:31:41;;;;;;;6.32;1.70;;;;;;;7.82;100.00;97992.78;5096418;28;20262;-34
2023/11/03 04:34:06;;;;;;;4.32;1.30;;;;;;;7.88;100.00;97997.03;5096045;28;20062;-34
2023/11/03 04:36:32;;;;;;;5.53;1.30;;;;;;;7.90;100.00;98006.41;5096606;28;20098;-34
2023/11/03 04:38:57;;;;;;;8.07;1.97;;;;;;;7.92;100.00;98019.59;5096226;28;20115;-34
2023/11/03 04:41:23;;;;;;;5.70;2.40;;;;;;;7.90;100.00;98011.78;5096293;28;20016;-34
2023/11/03 04:43:48;;;;;;;8.35;1.90;;;;;;;7.91;100.00;98012.63;5095669;28;20058;-34
2023/11/03 04:46:14;;;;;;;4.37;1.40;;;;;;;7.85;100.00;97998.38;5096226;28;20028;-35
2023/11/03 04:48:39;;;;;;;6.45;1.50;;;;;;;7.90;100.00;98011.78;5095510;28;20032;-35
2023/11/03 04:51:06;;;;;;;7.55;1.58;;;;;;;7.91;100.00;98016.13;5095883;28;20031;-34
2023/11/03 04:53:32;;;;;;;5.78;1.35;;;;;;;7.90;100.00;98011.00;5095630;28;20047;-35
2023/11/03 04:55:57;;;;;;;5.80;1.10;;;;;;;7.89;100.00;98015.56;5096183;28;20032;-35
2023/11/03 04:58:23;;;;;;;7.20;1.75;;;;;;;7.91;100.00;98021.50;5095650;28;20040;-35
2023/11/03 05:00:49;;;;;;;7.75;1.60;;;;;;;7.88;100.00;98013.19;5095904;28;20034;-35
2023/11/03 05:03:14;;;;;;;5.68;1.42;;;;;;;7.94;100.00;98028.19;5095519;28;20028;-35
2023/11/03 05:05:41;;;;;;;6.85;1.52;;;;;;;7.97;100.00;98039.19;5095578;28;20028;-35
2023/11/03 05:08:08;;;;;;;7.28;1.60;;;;;;;7.97;100.00;98039.19;5095399;28;20035;-35
2023/11/03 05:10:33;;;;;;;;;;;;;;;8.00;100.00;98033.25;5096707;28;20158;-35
2023/11/03 05:12:58;;;;;;;5.50;1.37;;;;;;;7.97;100.00;98041.88;5095317;28;20368;-35
2023/11/03 05:15:23;;;;;;;7.80;2.00;;;;;;;7.97;100.00;98028.44;5095087;28;20300;-35
2023/11/03 05:17:49;;;;;;;6.77;1.37;;;;;;;7.94;100.00;98018.22;5095745;28;20024;-35
2023/11/03 05:20:14;;;;;;;8.03;2.33;;;;;;;7.98;100.00;98035.41;5095496;28;20110;-35
2023/11/03 05:22:39;;;;;;;4.33;1.50;;;;;;;7.97;100.00;98044.56;5095137;28;20036;-35
2023/11/03 05:25:06;;;;;;;6.27;2.20;;;;;;;8.00;100.00;98057.47;5095658;28;20028;-35
2023/11/03 05:27:31;;;;;;;8.30;1.60;;;;;;;7.98;100.00;98040.78;5095334;28;20460;-35
2023/11/03 05:29:58;;;;;;;6.57;1.20;;;;;;;8.01;100.00;98055.59;5095130;28;20070;-35
2023/11/03 05:32:24;;;;;;;5.45;1.58;;;;;;;8.02;100.00;98049.13;5095003;28;20255;-35
2023/11/03 05:34:49;;;;;;;7.93;1.95;;;;;;;7.92;100.00;98041.94;5094588;28;20115;-35
2023/11/03 05:37:14;;;;;;;8.40;2.13;;;;;;;7.93;100.00;98040.84;5094823;28;20035;-35
2023/11/03 05:39:40;;;;;;;7.23;1.70;;;;;;;8.02;100.00;98061.78;5094763;28;20028;-35
2023/11/03 05:42:05;;;;;;;6.03;1.53;;;;;;;7.95;100.00;98045.94;5094479;28;20029;-35
2023/11/03 05:44:32;;;;;;;4.75;1.50;;;;;;;7.98;100.00;98056.13;5094689;28;20036;-35
2023/11/03 05:46:57;;;;;;;6.13;1.60;;;;;;;8.05;100.00;98072.75;5095263;28;20055;-35
2023/11/03 05:49:22;;;;;;;5.57;1.40;;;;;;;8.05;100.00;98070.06;5076595;28;20456;-35
2023/11/03 05:51:49;;;;;;;6.23;1.50;;;;;;;8.06;100.00;98065.50;5095431;28;20024;-35
2023/11/03 05:54:15;;;;;;;5.15;1.60;;;;;;;8.04;100.00;98068.47;5094493;28;20028;-35
2023/11/03 05:56:40;;;;;;;6.25;1.63;;;;;;;7.97;100.00;98068.78;5095008;28;20081;-35
2023/11/03 05:59:06;;;;;;;7.77;2.00;;;;;;;8.02;100.00;98062.56;5094452;28;20024;-35
2023/11/03 06:01:33;;;;;;;5.37;1.47;;;;;;;7.87;100.00;98051.94;5094984;28;20024;-35
2023/11/03 06:03:59;;;;;;;5.22;1.50;;;;;;;8.02;100.00;98077.91;5093987;28;20032;-35
2023/11/03 06:06:26;;;;;;;5.65;1.40;;;;;;;8.02;100.00;98081.41;5094281;28;20031;-35
2023/11/03 06:08:51;;;;;;;7.35;1.50;;;;;;;8.04;100.00;98081.91;5094187;28;20038;-35
2023/11/03 06:11:16;;;;;;;4.50;1.10;;;;;;;8.02;100.00;98094.06;5094633;28;20099;-35
2023/11/03 06:13:42;;;;;;;6.67;1.60;;;;;;;7.92;100.00;98084.19;5094474;28;20034;-35
2023/11/03 06:16:07;;;;;;;6.73;1.67;;;;;;;7.85;100.00;98067.53;5094198;28;20069;-35
2023/11/03 06:18:33;;;;;;;6.55;1.35;;;;;;;7.94;100.00;98103.53;5094364;28;20081;-35
2023/11/03 06:20:58;;;;;;;8.37;1.70;;;;;;;7.89;100.00;98100.88;5094113;28;20028;-35
2023/11/03 06:23:23;;;;;;;8.23;1.50;;;;;;;7.94;100.00;98123.16;5093791;28;20024;-35
2023/11/03 06:25:49;;;;;;;5.50;1.37;;;;;;;7.93;100.00;98118.06;5094303;28;20035;-35
2023/11/03 06:28:14;;;;;;;4.93;1.33;;;;;;;7.81;100.00;98110.34;5094534;28;20414;-35
2023/11/03 06:30:39;;;;;;;4.33;1.13;;;;;;;7.85;100.00;98111.38;5094542;28;20036;-35
2023/11/03 06:33:05;;;;;;;5.40;1.60;;;;;;;7.94;100.00;98125.84;5093656;28;20046;-35
2023/11/03 06:35:30;;;;;;;5.57;2.07;;;;;;;7.97;100.00;98132.56;5094754;28;20036;-35
2023/11/03 06:37:56;;;;;;;9.30;1.57;;;;;;;7.95;100.00;98142.78;5093811;28;20047;-35
2023/11/03 06:40:21;;;;;;;;;;;;;;;7.96;100.00;98129.09;5094215;28;20028;-35
2023/11/03 06:42:47;;;;;;;5.40;1.30;;;;;;;7.92;100.00;98136.09;5094569;28;19908;-35
2023/11/03 06:45:12;;;;;;;5.03;1.30;;;;;;;7.91;100.00;98147.97;5093783;28;20262;-35
2023/11/03 06:47:38;;;;;;;7.10;1.70;;;;;;;7.78;100.00;98121.66;5093880;28;20043;-35
2023/11/03 06:50:04;;;;;;;7.15;1.30;;;;;;;7.89;100.00;98144.72;5093381;28;20054;-35
2023/11/03 06:52:30;;;;;;;5.05;1.30;;;;;;;7.88;100.00;98155.78;5093602;28;20032;-35
2023/11/03 06:54:56;;;;;;;5.03;1.45;;;;;;;7.88;100.00;98161.16;5094556;28;20032;-35
2023/11/03 06:57:22;;;;;;;12.35;3.17;;;;;;;7.83;100.00;98164.69;5093144;28;20555;-35
2023/11/03 06:59:48;;;;;;;8.20;2.60;;;;;;;7.83;100.00;98159.31;5093316;28;20036;-35
2023/11/03 07:02:13;;;;;;;7.47;1.90;;;;;;;7.85;100.00;98167.88;5094053;28;20375;-35
2023/11/03 07:04:40;;;;;;;4.23;1.37;;;;;;;7.84;100.00;98173.56;5093549;28;20060;-35
2023/11/03 07:07:05;;;;;;;7.05;1.50;;;;;;;7.85;100.00;98178.66;5093459;28;20282;-35
2023/11/03 07:09:31;;;;;;;6.07;1.52;;;;;;;7.86;100.00;98179.47;5093169;28;20051;-35
2023/11/03 07:11:56;;;;;;;5.33;1.33;;;;;;;7.78;100.00;98172.78;5093753;28;20028;-35
2023/11/03 07:14:24;;;;;;;5.57;1.40;;;;;;;7.85;100.00;98186.72;5093666;28;20768;-35
2023/11/03 07:16:52;;;;;;;7.43;1.40;;;;;;;7.87;100.00;98198.03;5093585;28;20039;-35
2023/11/03 07:19:17;;;;;;;3.78;0.90;;;;;;;7.89;100.00;98197.75;5096149;28;20039;-35
2023/11/03 07:21:50;;;;;;;6.72;1.45;;;;;;;7.81;100.00;98185.69;5097444;28;20027;-35
2023/11/03 07:24:16;;;;;;;5.63;1.15;;;;;;;7.93;100.00;98204.19;5097432;28;20385;-35
2023/11/03 07:26:45;;;;;;;4.65;1.50;;;;;;;7.92;100.00;98202.56;5097366;28;20066;-35
2023/11/03 07:29:10;;;;;;;7.03;1.45;;;;;;;7.90;100.00;98199.34;5097354;28;20020;-35
2023/11/03 07:31:40;;;;;;;7.97;1.85;;;;;;;8.02;100.00;98207.09;5097332;28;20035;-35
2023/11/03 07:34:05;;;;;;;3.70;1.38;;;;;;;8.01;100.00;98208.97;5097149;28;20028;-35
2023/11/03 07:36:31;;;;;;;9.25;2.15;;;;;;;8.03;100.00;98208.69;5097439;28;20495;-35
2023/11/03 07:38:58;;;;;;;6.87;1.70;;;;;;;8.09;100.00;98215.66;5096773;28;20039;-35
2023/11/03 07:41:23;;;;;;;4.10;1.30;;;;;;;8.14;100.00;98226.38;5096974;28;20020;-35
2023/11/03 07:43:49;;;;;;;7.97;1.48;;;;;;;8.18;100.00;98228.25;5097235;28;20034;-35
2023/11/03 07:46:14;;;;;;;6.47;1.60;;;;;;;8.21;100.00;98226.91;5097208;28;20027;-35
2023/11/03 07:48:40;;;;;;;6.25;1.85;;;;;;;8.23;100.00;98225.50;5096900;28;20437;-35
2023/11/03 07:51:05;;;;;;;8.47;1.50;;;;;;;8.30;100.00;98241.38;5097267;28;20074;-35
2023/11/03 07:53:31;;;;;;;6.30;1.70;;;;;;;8.33;100.00;98242.69;5096878;28;20028;-35
2023/11/03 07:55:56;;;;;;;6.40;1.80;;;;;;;8.37;100.00;98251.84;5097667;28;20028;-35
2023/11/03 07:58:22;;;;;;;8.53;1.70;;;;;;;8.27;100.00;98239.22;5097517;28;20109;-35
2023/11/03 08:00:49;;;;;;;9.85;1.67;;;;;;;8.41;100.00;98247.53;5096996;28;20452;-35
2023/11/03 08:03:15;;;;;;;5.68;1.30;;;;;;;8.45;100.00;98265.53;5097413;28;20360;-36
2023/11/03 08:05:41;;;;;;;7.43;2.28;;;;;;;8.46;100.00;98264.44;5097582;28;20046;-43
2023/11/03 08:08:07;;;;;;;4.47;1.25;;;;;;;8.46;100.00;98261.75;5097344;28;20106;-35
2023/11/03 08:10:32;;;;;;;7.68;1.88;;;;;;;8.51;100.00;98269.00;5096525;28;20140;-35
2023/11/03 08:12:58;;;;;;;8.83;1.70;;;;;;;8.49;100.00;98263.91;5096401;28;20123;-37
2023/11/03 08:15:23;;;;;;;10.52;1.70;;;;;;;8.61;100.00;98282.41;5096688;28;20032;-35
2023/11/03 08:17:49;;;;;;;7.60;2.17;;;;;;;8.64;100.00;98275.66;5096624;28;20107;-35
2023/11/03 08:20:15;;;;;;;6.13;1.58;;;;;;;8.58;100.00;98263.28;5096646;28;20051;-35
2023/11/03 08:22:44;;;;;;;3.63;1.20;;;;;;;8.70;100.00;98277.22;5096302;28;20024;-35
2023/11/03 08:25:11;;;;;;;10.70;2.55;;;;;;;8.73;100.00;98285.53;5096826;28;20103;-35
2023/11/03 08:27:37;;;;;;;5.97;1.50;;;;;;;8.70;100.00;98277.22;5096167;28;20032;-35
2023/11/03 08:30:04;;;;;;;7.40;2.17;;;;;;;8.71;100.00;98274.22;5095964;28;20067;-35
2023/11/03 08:32:30;;;;;;;8.10;2.17;;;;;;;8.81;100.00;98286.81;5096044;28;20035;-35
2023/11/03 08:34:56;;;;;;;4.82;1.83;;;;;;;8.83;100.00;98295.41;5096344;28;20024;-35
2023/11/03 08:37:21;;;;;;;9.32;1.58;;;;;;;8.85;100.00;98285.19;5095926;28;20032;-35
2023/11/03 08:39:47;;;;;;;7.18;1.95;;;;;;;8.87;100.00;98298.38;5095989;28;20024;-35
2023/11/03 08:42:12;;;;;;;8.15;1.85;;;;;;;8.89;100.00;98297.00;5096305;28;20032;-35
2023/11/03 08:44:38;;;;;;;7.17;1.70;;;;;;;8.93;100.00;98297.22;5095912;28;20027;-35
2023/11/03 08:47:03;;;;;;;10.20;2.57;;;;;;;9.01;100.00;98305.53;5096159;28;20795;-35
2023/11/03 08:49:30;;;;;;;8.60;2.20;;;;;;;9.08;100.00;98293.59;5095864;28;20446;-35
2023/11/03 08:51:55;;;;;;;9.60;2.30;;;;;;;9.15;100.00;98310.28;5095699;28;20270;-35
2023/11/03 08:54:21;;;;;;;8.65;1.80;;;;;;;9.22;100.00;98306.16;5096002;28;20032;-35
2023/11/03 08:56:47;;;;;;;7.30;1.70;;;;;;;9.18;100.00;98293.53;5095311;28;20404;-35
2023/11/03 08:59:13;;;;;;;6.22;1.77;;;;;;;9.29;100.00;98306.63;5096119;28;20036;-35
2023/11/03 09:01:38;;;;;;;7.50;2.10;;;;;;;9.34;100.00;98294.19;5096327;28;20483;-35
2023/11/03 09:04:04;;;;;;;8.50;1.90;;;;;;;9.47;100.00;98309.72;5095492;28;20035;-35
2023/11/03 09:06:29;;;;;;;15.65;2.33;;;;;;;9.55;100.00;98317.97;5095537;28;20035;-35
2023/11/03 09:08:55;;;;;;;7.60;1.63;;;;;;;9.61;100.00;98309.81;5095463;28;20380;-35
2023/11/03 09:11:21;;;;;;;7.72;1.50;;;;;;;9.66;100.00;98312.47;5095960;28;20266;-35
2023/11/03 09:13:51;;;;;;;5.28;1.88;;;;;;;9.71;100.00;98318.63;5096033;28;20028;-35
2023/11/03 09:16:17;;;;;;;7.00;1.95;;;;;;;9.81;100.00;98317.72;5094861;28;20031;-35
2023/11/03 09:18:42;;;;;;;8.90;2.03;;;;;;;9.97;100.00;98321.03;5095178;28;20024;-35
2023/11/03 09:21:09;;;;;;;6.60;1.57;;;;;;;10.03;100.00;98326.06;5095458;28;20337;-35
2023/11/03 09:23:35;;;;;;;10.60;1.70;;;;;;;9.93;100.00;98315.41;5095079;28;20111;-35
2023/11/03 09:26:03;;;;;;;9.07;2.00;;;;;;;10.05;100.00;98318.50;5095381;28;20107;-35
2023/11/03 09:28:29;;;;;;;6.90;1.80;;;;;;;10.07;100.00;98320.91;5094972;28;20038;-35
2023/11/03 09:30:54;;;;;;;8.85;2.28;;;;;;;10.09;100.00;98326.00;5094989;28;20154;-35
2023/11/03 09:33:20;;;;;;;7.95;1.88;;;;;;;10.04;100.00;98327.69;5094919;28;20541;-35
2023/11/03 09:35:45;;;;;;;8.77;1.95;;;;;;;10.02;100.00;98329.88;5095202;28;20073;-35
2023/11/03 09:38:12;;;;;;;7.32;2.38;;;;;;;10.03;100.00;98342.28;5094299;28;20047;-35
2023/11/03 09:40:39;;;;;;;7.60;1.90;;;;;;;9.99;100.00;98335.03;5094261;28;20028;-35
2023/11/03 09:43:05;;;;;;;5.28;1.48;;;;;;;9.86;100.00;98324.91;5094376;28;20024;-35
2023/11/03 09:45:33;;;;;;;8.20;1.88;;;;;;;9.92;100.00;98338.09;5094592;28;20464;-35
2023/11/03 09:47:59;;;;;;;6.57;1.70;;;;;;;9.86;100.00;98333.03;5094551;28;20028;-35
2023/11/03 09:50:25;;;;;;;8.07;1.63;;;;;;;9.86;100.00;98357.31;5094789;28;20032;-35
2023/11/03 09:52:54;;;;;;;12.03;2.67;;;;;;;9.86;100.00;98363.53;5094175;28;20555;-35
2023/11/03 09:55:23;;;;;;;8.02;1.83;;;;;;;9.72;100.00;98347.22;5094684;28;20016;-35
2023/11/03 09:57:54;;;;;;;9.10;1.70;;;;;;;9.74;100.00;98365.81;5094651;28;20067;-35
2023/11/03 10:00:22;;;;;;;8.55;2.17;;;;;;;9.75;100.00;98372.81;5094369;28;20480;-35
2023/11/03 10:02:48;;;;;;;7.88;2.00;;;;;;;9.71;100.00;98374.47;5094332;28;20361;-35
2023/11/03 10:05:17;;;;;;;9.02;2.58;;;;;;;9.70;100.00;98380.97;5076254;28;20035;-35
2023/11/03 10:08:17;;;;;;;10.98;2.08;;;;;;;9.70;100.00;98378.25;5094474;28;20098;-35
2023/11/03 10:10:45;;;;;;;10.10;2.65;;;;;;;9.67;100.00;98390.44;5094788;28;20110;-35
2023/11/03 10:13:11;;;;;;;6.97;1.85;;;;;;;9.68;100.00;98394.75;5094152;28;20473;-35
2023/11/03 10:15:40;;;;;;;8.18;1.80;;;;;;;9.70;100.00;98391.75;5094131;28;20024;-35
2023/11/03 10:18:07;;;;;;;11.70;2.13;;;;;;;9.68;100.00;98388.56;5093875;28;20024;-35
2023/11/03 10:20:32;;;;;;;12.48;2.72;;;;;;;9.51;100.00;98368.19;5094321;28;20053;-35
2023/11/03 10:22:57;;;;;;;7.57;1.70;;;;;;;9.59;100.00;98385.66;5094133;28;20051;-35
2023/11/03 10:25:26;;;;;;;7.90;2.07;;;;;;;9.54;100.00;98383.81;5094050;28;20028;-35
2023/11/03 10:27:54;;;;;;;8.27;2.00;;;;;;;9.58;100.00;98404.84;5094216;28;20380;-35
2023/11/03 10:30:21;;;;;;;8.50;2.03;;;;;;;9.53;100.00;98403.78;5094467;28;20065;-35
2023/11/03 10:32:47;;;;;;;5.60;1.65;;;;;;;9.62;100.00;98412.09;5093894;28;20153;-35
2023/11/03 10:35:13;;;;;;;8.50;2.28;;;;;;;9.57;100.00;98400.53;5093917;28;20446;-35
2023/11/03 10:37:40;;;;;;;8.20;2.15;;;;;;;9.63;100.00;98420.97;5093418;28;20020;-35
2023/11/03 10:40:12;;;;;;;9.90;2.17;;;;;;;9.66;100.00;98412.31;5094669;28;20373;-35
2023/11/03 10:42:40;;;;;;;9.57;2.63;;;;;;;9.61;100.00;98429.34;5094067;28;20085;-35
2023/11/03 10:45:06;;;;;;;9.75;2.90;;;;;;;9.66;100.00;98428.50;5094640;28;20453;-35
2023/11/03 10:47:44;;;;;;;7.28;1.98;;;;;;;9.67;100.00;98430.94;5094228;28;20054;-35
2023/11/03 10:50:14;;;;;;;8.32;2.15;;;;;;;9.69;100.00;98427.94;5093686;28;20032;-35
2023/11/03 10:52:45;;;;;;;9.13;2.40;;;;;;;9.74;100.00;98430.59;5093765;28;20039;-35
2023/11/03 10:55:13;;;;;;;8.52;2.38;;;;;;;9.67;100.00;98420.13;5093929;28;20054;-35
2023/11/03 10:57:40;;;;;;;11.20;2.33;;;;;;;9.77;100.00;98430.81;5093367;28;20139;-35
2023/11/03 11:00:12;;;;;;;10.55;3.13;;;;;;;9.79;100.00;98430.53;5093248;28;20028;-35
2023/11/03 11:02:57;;;;;;;7.43;2.08;;;;;;;9.82;100.00;98427.28;5093832;28;20433;-35
2023/11/03 11:05:35;;;;;;;10.18;2.30;;;;;;;9.87;100.00;98429.94;5093592;28;20024;-35
2023/11/03 11:08:06;;;;;;;10.10;2.30;;;;;;;9.86;100.00;98441.81;5093587;28;20032;-35
2023/11/03 11:10:41;;;;;;;5.90;1.40;;;;;;;9.87;100.00;98446.13;5094075;28;20063;-35
2023/11/03 11:13:20;;;;;;;6.85;1.88;;;;;;;9.89;100.00;98443.94;5093240;28;20024;-35
2023/11/03 11:16:12;;;;;;;10.07;2.95;;;;;;;9.89;100.00;98446.63;5093507;28;20062;-35
2023/11/03 11:18:55;;;;;;;7.47;1.65;;;;;;;9.91;100.00;98449.06;5089698;28;20040;-35
2023/11/03 11:21:32;;;;;;;7.03;1.73;;;;;;;9.87;100.00;98439.94;5093632;28;20032;-35
2023/11/03 11:23:59;;;;;;;8.55;1.63;;;;;;;9.90;100.00;98460.94;5093619;28;20396;-35
2023/11/03 11:26:25;;;;;;;9.07;1.75;;;;;;;9.93;100.00;98453.06;5094051;28;20024;-35
2023/11/03 11:28:52;;;;;;;6.95;2.30;;;;;;;9.93;100.00;98460.38;5093852;28;20028;-35
2023/11/03 11:31:24;;;;;;;8.35;2.10;;;;;;;9.97;100.00;98466.81;5093003;28;20020;-35